Ogallala, NE

9:07 AM MDT on September 24, 2017 (GMT -0600)
Searle

Weather History for KOGA - April, 2013

Change the Weather History Date:

Monday, April 22, 2013

  Actual Average Record
Temperature  
Mean Temperature 36 °F -  
Max Temperature 45 °F 65 °F 95 °F (1980)
Min Temperature 26 °F 35 °F 16 °F (1967)
Degree Days  
Heating Degree Days 29    
Moisture  
Dew Point 30 °F    
Average Humidity 80    
Maximum Humidity 95    
Minimum Humidity 62    
Precipitation  
Precipitation 0.01 in - - ()
Sea Level Pressure  
Sea Level Pressure 30.12 in    
Wind  
Wind Speed 17 mph (NE)    
Max Wind Speed 33 mph    
Max Gust Speed 38 mph    
Visibility 8 miles    
Events Rain , Thunderstorm    
Averages and records for this station are not official NWS values.
T = Trace of Precipitation, MM = Missing Value Source: NWS Daily Summary

Daily Weather History Graph

Daily Weather History Graph

Search for Another Location

Airport or City:

Trip Planner

Search our weather history database for the weather conditions in past years. The results will help you decide how hot, cold, wet, or windy it might be!

Date:

Astronomy

Apr. 22, 2013 Rise Set
Actual Time 5:56 AM MDT 7:34 PM MDT
Civil Twilight 5:27 AM MDT 8:04 PM MDT
Nautical Twilight 4:52 AM MDT 8:39 PM MDT
Astronomical Twilight 4:15 AM MDT 9:17 PM MDT
Moon 4:24 PM MDT (4/22) 3:54 AM MDT (4/22)
Length of Visible Light 14h 36m
Length of Day
13h 37m
Waxing Gibbous, 88% of the Moon is Illuminated
Apr 22
Waxing Gibbous
Apr 25
Full
May 2
Last Quarter
May 9
New
May 17
First Quarter

Hourly Weather History & Observations

Time (MDT) Temp. Windchill Dew Point Humidity Pressure Visibility Wind Dir Wind Speed Gust Speed Precip Events Conditions
12:15 AM 45.1 °F 38.4 °F 41.4 °F 87% 30.04 in 10.0 mi SE 15.0 mph 18.4 mph N/A   Overcast
12:35 AM 45.1 °F 38.8 °F 41.4 °F 87% 30.02 in 10.0 mi ESE 13.8 mph - N/A   Overcast
12:55 AM 45.5 °F 39.2 °F 41.4 °F 85% 30.02 in 10.0 mi ESE 13.8 mph - N/A   Overcast
1:15 AM 45.5 °F 39.2 °F 41.4 °F 85% 30.00 in 10.0 mi ESE 13.8 mph - N/A   Overcast
1:35 AM 44.8 °F 38.3 °F 41.0 °F 87% 30.00 in 10.0 mi East 13.8 mph - N/A   Overcast
1:55 AM 44.6 °F 38.1 °F 41.2 °F 88% 29.99 in 10.0 mi East 13.8 mph - N/A   Overcast
2:15 AM 44.6 °F 38.4 °F 41.2 °F 88% 29.98 in 10.0 mi East 12.7 mph 18.4 mph N/A   Overcast
2:35 AM 44.1 °F 37.4 °F 41.0 °F 89% 29.98 in 10.0 mi East 13.8 mph 18.4 mph N/A   Overcast
2:55 AM 43.9 °F 37.5 °F 41.0 °F 90% 29.96 in 10.0 mi East 12.7 mph - N/A   Overcast
3:15 AM 43.7 °F 36.9 °F 41.0 °F 90% 29.95 in 10.0 mi East 13.8 mph - N/A   Overcast
3:35 AM 43.3 °F 36.5 °F 40.5 °F 90% 29.94 in 10.0 mi East 13.8 mph 18.4 mph N/A   Overcast
3:55 AM 43.2 °F 37.4 °F 40.5 °F 90% 29.94 in 10.0 mi East 10.4 mph - N/A   Overcast
4:15 AM 42.8 °F 36.2 °F 40.1 °F 90% 29.93 in 7.0 mi East 12.7 mph - N/A   Overcast
4:35 AM 42.8 °F 38.0 °F 40.1 °F 90% 29.94 in 7.0 mi East 8.1 mph - N/A   Overcast
4:55 AM 42.4 °F 38.1 °F 39.7 °F 90% 29.95 in 7.0 mi East 6.9 mph - N/A   Overcast
5:15 AM 41.5 °F 36.4 °F 39.4 °F 92% 29.96 in 5.0 mi ESE 8.1 mph - N/A   Overcast
5:35 AM 41.2 °F 34.5 °F 39.4 °F 93% 29.95 in 2.5 mi East 11.5 mph - N/A   Overcast
5:55 AM 41.0 °F 37.1 °F 39.4 °F 94% 29.97 in 1.0 mi ESE 5.8 mph - N/A   Overcast
6:15 AM 41.0 °F 33.1 °F 39.4 °F 94% 29.94 in 1.0 mi East 15.0 mph - N/A Rain , Thunderstorm Light Thunderstorms and Rain
6:35 AM 40.6 °F 35.4 °F 39.2 °F 95% 29.97 in 1.2 mi ENE 8.1 mph - 0.01 in Thunderstorm Overcast
6:55 AM 40.5 °F 33.6 °F 39.2 °F 95% 29.96 in 0.8 mi ENE 11.5 mph - 0.01 in   Overcast
7:15 AM 40.5 °F 33.6 °F 39.2 °F 95% 29.95 in 0.8 mi ENE 11.5 mph - N/A   Light Drizzle
7:35 AM 40.1 °F 34.1 °F 38.8 °F 95% 29.97 in 1.2 mi NE 9.2 mph - N/A   Overcast
7:55 AM 40.1 °F 33.2 °F 38.8 °F 95% 29.96 in 3.0 mi ENE 11.5 mph - N/A Thunderstorm Overcast
8:15 AM 39.7 °F 33.2 °F 38.5 °F 95% 29.98 in 7.0 mi NE 10.4 mph - N/A   Overcast
8:35 AM 38.8 °F 31.6 °F 37.6 °F 95% 29.99 in 5.0 mi ENE 11.5 mph - N/A   Overcast
8:55 AM 38.3 °F 30.1 °F 36.7 °F 94% 30.00 in 5.0 mi NE 13.8 mph - N/A   Overcast
9:15 AM 37.6 °F 27.7 °F 36.1 °F 95% 30.01 in 7.0 mi NE 18.4 mph 23.0 mph N/A   Overcast
9:35 AM 36.0 °F 25.0 °F 34.2 °F 93% 30.02 in 7.0 mi NE 20.7 mph 25.3 mph N/A   Overcast
9:55 AM 33.8 °F 20.8 °F 31.5 °F 91% 30.04 in 5.0 mi NE 26.5 mph 31.1 mph N/A   Overcast
10:15 AM 32.9 °F 19.8 °F 30.0 °F 89% 30.05 in 10.0 mi NNE 25.3 mph 33.4 mph N/A   Overcast
10:35 AM 32.0 °F 17.4 °F 28.6 °F 87% 30.07 in 5.0 mi NNE 31.1 mph 38.0 mph N/A   Overcast
10:55 AM 32.0 °F 18.6 °F 28.4 °F 87% 30.10 in 4.0 mi NE 25.3 mph 34.5 mph N/A   Overcast
11:15 AM 31.5 °F 17.4 °F 27.5 °F 85% 30.11 in 5.0 mi NE 27.6 mph 38.0 mph N/A   Overcast
11:35 AM 31.8 °F 17.9 °F 27.5 °F 84% 30.12 in 10.0 mi NNE 27.6 mph 33.4 mph N/A   Overcast
11:55 AM 31.8 °F 18.4 °F 26.2 °F 80% 30.13 in 10.0 mi NE 25.3 mph 36.8 mph N/A   Overcast
12:15 PM 32.0 °F 17.9 °F 25.5 °F 77% 30.15 in 10.0 mi NNE 28.8 mph 33.4 mph N/A   Overcast
12:35 PM 32.0 °F 19.2 °F 25.5 °F 77% 30.17 in 10.0 mi NNE 23.0 mph 33.4 mph N/A   Overcast
12:55 PM 32.0 °F 18.4 °F 25.3 °F 76% 30.15 in 10.0 mi NNE 26.5 mph 35.7 mph N/A   Overcast
1:15 PM 32.4 °F 17.5 °F 25.5 °F 76% 30.15 in 10.0 mi NNE 33.4 mph 36.8 mph N/A   Overcast
1:35 PM 31.8 °F 17.9 °F 24.8 °F 75% 30.15 in 10.0 mi NNE 27.6 mph 31.1 mph N/A   Overcast
1:55 PM 32.9 °F 19.1 °F 24.6 °F 72% 30.17 in 10.0 mi North 28.8 mph 33.4 mph N/A   Overcast
2:15 PM 32.9 °F 20.1 °F 23.7 °F 69% 30.18 in 10.0 mi NNE 24.2 mph 31.1 mph N/A   Overcast
2:35 PM 33.1 °F 20.6 °F 23.9 °F 69% 30.18 in 10.0 mi NNE 23.0 mph 32.2 mph N/A   Overcast
2:55 PM 32.9 °F 19.6 °F 22.8 °F 66% 30.19 in 10.0 mi NNE 26.5 mph 33.4 mph N/A   Overcast
3:15 PM 33.4 °F 20.1 °F 22.5 °F 64% 30.19 in 10.0 mi NNE 27.6 mph 34.5 mph N/A   Overcast
3:35 PM 34.0 °F 20.5 °F 22.3 °F 62% 30.18 in 10.0 mi NNE 28.8 mph 34.5 mph N/A   Overcast
3:55 PM 33.8 °F 20.5 °F 22.3 °F 63% 30.19 in 10.0 mi NNE 27.6 mph 33.4 mph N/A   Overcast
4:15 PM 33.4 °F 21.1 °F 21.9 °F 63% 30.19 in 10.0 mi NNE 23.0 mph - N/A   Overcast
4:35 PM 33.4 °F 20.1 °F 22.1 °F 63% 30.19 in 10.0 mi NNE 27.6 mph 34.5 mph N/A   Overcast
4:55 PM 33.6 °F 20.1 °F 21.7 °F 62% 30.20 in 10.0 mi NNE 28.8 mph 33.4 mph N/A   Overcast
5:15 PM 32.5 °F 20.8 °F 21.9 °F 65% 30.21 in 10.0 mi NE 19.6 mph 32.2 mph N/A   Overcast
5:35 PM 32.2 °F 18.9 °F 21.9 °F 66% 30.23 in 10.0 mi NNE 25.3 mph 31.1 mph N/A   Overcast
5:55 PM 32.0 °F 18.9 °F 21.6 °F 65% 30.23 in 10.0 mi NNE 24.2 mph 28.8 mph N/A   Overcast
6:15 PM 32.0 °F 19.8 °F 21.2 °F 64% 30.23 in 10.0 mi NE 20.7 mph 29.9 mph N/A   Overcast
6:35 PM 31.6 °F 19.0 °F 22.1 °F 68% 30.25 in 10.0 mi NNE 21.9 mph 25.3 mph N/A   Overcast
6:55 PM 31.1 °F 17.7 °F 21.9 °F 69% 30.25 in 10.0 mi NNE 24.2 mph - N/A   Overcast
7:15 PM 30.7 °F 17.2 °F 22.1 °F 70% 30.27 in 10.0 mi North 24.2 mph - N/A   Overcast
7:35 PM 30.2 °F 17.4 °F 21.9 °F 71% 30.27 in 10.0 mi NNE 20.7 mph 26.5 mph N/A   Overcast
7:55 PM 30.0 °F 17.5 °F 21.9 °F 72% 30.29 in 10.0 mi NNE 19.6 mph 25.3 mph N/A   Overcast
8:15 PM 29.3 °F 17.7 °F 20.8 °F 71% 30.31 in 10.0 mi NNE 16.1 mph 21.9 mph N/A   Overcast
8:35 PM 29.3 °F 17.0 °F 20.7 °F 70% 30.32 in 10.0 mi NNE 18.4 mph 23.0 mph N/A   Overcast
8:55 PM 29.1 °F 17.1 °F 21.0 °F 72% 30.30 in 10.0 mi NNE 17.3 mph - N/A   Overcast
9:15 PM 28.9 °F 16.9 °F 21.0 °F 72% 30.35 in 10.0 mi North 17.3 mph - N/A   Overcast
9:35 PM 28.9 °F 18.6 °F 20.3 °F 70% 30.35 in 10.0 mi North 12.7 mph - N/A   Overcast
9:55 PM 28.4 °F 15.1 °F 20.3 °F 72% 30.34 in 10.0 mi NNE 20.7 mph - N/A   Overcast
10:15 PM 28.4 °F 15.8 °F 19.6 °F 70% 30.35 in 10.0 mi North 18.4 mph 24.2 mph N/A   Overcast
10:35 PM 27.9 °F 14.7 °F 19.6 °F 71% 30.33 in 10.0 mi NNE 19.6 mph - N/A   Overcast
10:55 PM 27.3 °F 14.8 °F 19.0 °F 71% 30.33 in 10.0 mi North 17.3 mph - N/A   Mostly Cloudy
11:15 PM 27.1 °F 15.9 °F 19.4 °F 73% 30.33 in 10.0 mi North 13.8 mph - N/A   Mostly Cloudy
11:35 PM 27.1 °F 15.4 °F 19.4 °F 73% 30.34 in 10.0 mi NNE 15.0 mph 18.4 mph N/A   Overcast
11:55 PM 26.6 °F 14.3 °F 18.0 °F 70% 30.34 in 10.0 mi NNE 16.1 mph 23.0 mph N/A   Overcast